createdAt,value
2023-02-14T00:01:30.875Z,15.15
2023-02-14T00:03:33.728Z,16.35
2023-02-14T00:05:36.478Z,14.13
2023-02-14T00:07:39.245Z,14.98
2023-02-14T00:09:42.039Z,14.43
2023-02-14T00:11:45.043Z,16.27
2023-02-14T00:14:01.878Z,14.35
2023-02-14T00:16:04.855Z,17.45
2023-02-14T00:18:09.044Z,14.15
2023-02-14T00:20:12.666Z,15.40
2023-02-14T00:22:15.528Z,15.98
2023-02-14T00:24:20.023Z,15.93
2023-02-14T00:26:22.848Z,14.32
2023-02-14T00:28:25.634Z,15.02
2023-02-14T00:30:28.539Z,16.50
2023-02-14T00:32:31.378Z,15.95
2023-02-14T00:34:36.568Z,15.82
2023-02-14T00:36:39.786Z,15.57
2023-02-14T00:38:42.560Z,16.25
2023-02-14T00:40:45.359Z,17.05
2023-02-14T00:42:48.145Z,16.77
2023-02-14T00:44:51.069Z,15.75
2023-02-14T00:46:56.069Z,17.38
2023-02-14T00:48:59.488Z,16.05
2023-02-14T00:51:03.606Z,15.38
2023-02-14T00:53:06.472Z,15.38
2023-02-14T00:55:09.445Z,13.93
2023-02-14T00:57:12.334Z,17.90
2023-02-14T00:59:15.160Z,16.52
2023-02-14T01:01:18.805Z,17.92
2023-02-14T01:03:21.832Z,16.02
2023-02-14T01:05:24.605Z,15.63
2023-02-14T01:07:28.797Z,16.08
2023-02-14T01:09:31.623Z,15.88
2023-02-14T01:11:40.377Z,16.00
2023-02-14T01:13:45.448Z,17.52
2023-02-14T01:15:50.703Z,17.00
2023-02-14T01:17:53.541Z,17.08
2023-02-14T01:19:57.420Z,16.88
2023-02-14T01:22:00.218Z,16.17
2023-02-14T01:24:06.766Z,17.02
2023-02-14T01:26:11.163Z,18.88
2023-02-14T01:28:13.912Z,18.77
2023-02-14T01:30:17.450Z,17.33
2023-02-14T01:32:20.339Z,19.00
2023-02-14T01:34:23.220Z,17.45
2023-02-14T01:36:28.279Z,19.58
2023-02-14T01:38:32.249Z,18.08
2023-02-14T01:40:42.844Z,20.08
2023-02-14T01:42:45.641Z,17.63
2023-02-14T01:44:57.740Z,18.20
2023-02-14T01:47:03.783Z,18.13
2023-02-14T01:49:12.706Z,18.45
2023-02-14T01:51:19.693Z,19.23
2023-02-14T01:53:27.215Z,19.08
2023-02-14T01:55:33.199Z,21.80
2023-02-14T01:57:41.752Z,18.80
2023-02-14T01:59:49.950Z,20.02
2023-02-14T02:01:53.939Z,20.15
2023-02-14T02:04:00.790Z,20.63
2023-02-14T02:06:12.388Z,19.38
2023-02-14T02:08:15.799Z,19.30
2023-02-14T02:12:25.807Z,19.67
2023-02-14T02:14:30.064Z,21.20
2023-02-14T02:16:50.033Z,19.10
2023-02-14T02:19:10.398Z,19.02
2023-02-14T02:21:45.008Z,19.20
2023-02-14T02:24:24.141Z,19.45
2023-02-14T02:26:51.589Z,19.92
2023-02-14T02:29:23.444Z,21.50
2023-02-14T02:31:53.641Z,20.73
2023-02-14T02:34:13.598Z,20.40
2023-02-14T02:36:37.813Z,21.60
2023-02-14T02:39:04.927Z,20.25
2023-02-14T02:41:16.929Z,21.67
2023-02-14T02:43:36.134Z,22.05
2023-02-14T02:46:05.584Z,21.48
2023-02-14T02:48:16.218Z,20.92
2023-02-14T02:50:45.160Z,20.67
2023-02-14T02:53:06.324Z,22.17
2023-02-14T02:55:18.659Z,19.80
2023-02-14T02:57:26.241Z,20.23
2023-02-14T02:59:32.256Z,22.02
2023-02-14T03:01:39.205Z,20.95
2023-02-14T03:04:03.693Z,21.27
2023-02-14T03:06:06.890Z,23.30
2023-02-14T03:08:10.981Z,23.38
2023-02-14T03:10:17.715Z,22.55
2023-02-14T03:12:45.066Z,22.20
2023-02-14T03:14:56.561Z,21.48
2023-02-14T03:17:05.936Z,21.70
2023-02-14T03:19:38.889Z,21.88
2023-02-14T03:21:47.311Z,24.80
2023-02-14T03:23:57.919Z,23.40
2023-02-14T03:26:08.955Z,23.63
2023-02-14T03:28:19.292Z,23.80
2023-02-14T03:30:36.621Z,22.00
2023-02-14T03:32:44.740Z,20.00
2023-02-14T03:34:54.550Z,23.00
2023-02-14T03:37:03.510Z,23.42
2023-02-14T03:39:13.941Z,23.98
2023-02-14T03:41:22.176Z,24.27
2023-02-14T03:43:29.462Z,24.42
2023-02-14T03:45:38.093Z,24.75
2023-02-14T03:47:44.689Z,22.52
2023-02-14T03:49:51.981Z,25.63
2023-02-14T03:51:57.288Z,24.27
2023-02-14T03:54:00.558Z,22.65
2023-02-14T03:56:11.299Z,24.08
2023-02-14T03:58:20.345Z,24.15
2023-02-14T04:00:23.740Z,23.80
2023-02-14T04:02:32.176Z,24.25
2023-02-14T04:04:39.461Z,21.15
2023-02-14T04:06:42.244Z,23.48
2023-02-14T04:08:45.006Z,23.17
2023-02-14T04:10:47.834Z,22.80
2023-02-14T04:12:52.297Z,23.35
2023-02-14T04:14:55.037Z,27.23
2023-02-14T04:17:15.450Z,25.30
2023-02-14T04:19:23.998Z,22.90
2023-02-14T04:21:26.930Z,21.73
2023-02-14T04:23:29.725Z,23.90
2023-02-14T04:25:32.516Z,25.58
2023-02-14T04:27:35.300Z,22.92
2023-02-14T04:29:41.281Z,23.65
2023-02-14T04:31:44.114Z,25.30
2023-02-14T04:33:48.132Z,24.75
2023-02-14T04:35:50.923Z,23.08
2023-02-14T04:37:54.596Z,23.35
2023-02-14T04:39:57.377Z,22.38
2023-02-14T04:42:00.213Z,23.15
2023-02-14T04:44:03.014Z,24.50
2023-02-14T04:46:07.210Z,24.35
2023-02-14T04:48:10.305Z,23.02
2023-02-14T04:50:13.876Z,22.90
2023-02-14T04:52:16.790Z,24.35
2023-02-14T04:54:19.597Z,24.92
2023-02-14T04:56:22.409Z,25.52
2023-02-14T04:58:25.187Z,22.23
2023-02-14T05:00:27.992Z,22.55
2023-02-14T05:02:32.051Z,23.02
2023-02-14T05:04:34.849Z,25.80
2023-02-14T05:06:37.691Z,23.27
2023-02-14T05:08:40.497Z,24.88
2023-02-14T05:10:43.347Z,24.63
2023-02-14T05:12:46.107Z,23.65
2023-02-14T05:14:48.922Z,25.25
2023-02-14T05:16:51.829Z,23.70
2023-02-14T05:18:56.012Z,24.27
2023-02-14T05:20:59.199Z,24.67
2023-02-14T05:23:03.434Z,24.15
2023-02-14T05:25:06.852Z,24.40
2023-02-14T05:27:11.592Z,24.35
2023-02-14T05:29:14.366Z,24.50
2023-02-14T05:31:17.435Z,26.48
2023-02-14T05:33:20.380Z,24.65
2023-02-14T05:35:24.985Z,23.23
2023-02-14T05:37:27.792Z,24.10
2023-02-14T05:39:30.839Z,22.15
2023-02-14T05:41:33.653Z,23.40
2023-02-14T05:43:36.396Z,22.27
2023-02-14T05:45:39.420Z,22.65
2023-02-14T05:47:42.305Z,24.33
2023-02-14T05:49:45.008Z,23.92
2023-02-14T05:51:49.153Z,22.58
2023-02-14T05:53:52.052Z,25.08
2023-02-14T05:55:54.806Z,21.90
2023-02-14T05:57:57.681Z,23.45
2023-02-14T06:00:00.461Z,24.40
2023-02-14T06:02:03.362Z,23.98
2023-02-14T06:04:06.238Z,23.25
2023-02-14T06:06:09.090Z,22.92
2023-02-14T06:08:13.223Z,24.95
2023-02-14T06:10:16.213Z,23.33
2023-02-14T06:12:19.011Z,20.80
2023-02-14T06:14:21.834Z,23.55
2023-02-14T06:16:24.693Z,24.63
2023-02-14T06:18:29.547Z,24.10
2023-02-14T06:20:32.745Z,23.00
2023-02-14T06:22:35.567Z,24.35
2023-02-14T06:24:39.699Z,26.08
2023-02-14T06:26:42.613Z,25.20
2023-02-14T06:28:45.463Z,23.15
2023-02-14T06:30:48.480Z,25.75
2023-02-14T06:32:51.473Z,25.05
2023-02-14T06:34:54.314Z,25.85
2023-02-14T06:36:57.090Z,24.92
2023-02-14T06:39:00.028Z,25.52
2023-02-14T06:41:06.741Z,26.55
2023-02-14T06:43:09.527Z,24.63
2023-02-14T06:45:12.256Z,22.73
2023-02-14T06:47:15.304Z,23.23
2023-02-14T06:49:18.121Z,23.58
2023-02-14T06:51:20.913Z,23.33
2023-02-14T06:53:23.750Z,23.95
2023-02-14T06:55:26.770Z,22.30
2023-02-14T06:57:30.921Z,23.55
2023-02-14T06:59:33.724Z,24.02
2023-02-14T07:01:36.573Z,22.58
2023-02-14T07:03:39.399Z,21.10
2023-02-14T07:05:42.242Z,21.00
2023-02-14T07:07:44.978Z,20.52
2023-02-14T07:09:47.763Z,21.85
2023-02-14T07:11:50.569Z,21.83
2023-02-14T07:13:54.652Z,19.52
2023-02-14T07:15:57.533Z,20.52
2023-02-14T07:18:00.320Z,20.73
2023-02-14T07:20:03.524Z,18.20
2023-02-14T07:22:06.416Z,20.58
2023-02-14T07:24:09.225Z,20.83
2023-02-14T07:26:12.143Z,21.27
2023-02-14T07:28:14.953Z,22.88
2023-02-14T07:30:19.525Z,21.33
2023-02-14T07:32:23.340Z,21.75
2023-02-14T07:34:27.177Z,21.48
2023-02-14T07:36:30.025Z,22.67
2023-02-14T07:38:32.815Z,20.67
2023-02-14T07:40:35.624Z,24.05
2023-02-14T07:42:38.383Z,23.17
2023-02-14T07:44:41.216Z,22.00
2023-02-14T07:46:45.376Z,21.73
2023-02-14T07:48:48.811Z,20.92
2023-02-14T07:50:51.609Z,23.60
2023-02-14T07:52:54.438Z,21.70
2023-02-14T07:54:57.282Z,22.20
2023-02-14T07:57:00.154Z,22.17
2023-02-14T07:59:02.982Z,22.88
2023-02-14T08:01:05.904Z,20.63
2023-02-14T08:03:10.076Z,22.13
2023-02-14T08:05:12.945Z,21.50
2023-02-14T08:07:15.769Z,21.65
2023-02-14T08:09:24.577Z,22.45
2023-02-14T08:11:44.586Z,22.88
2023-02-14T08:13:47.402Z,21.50
2023-02-14T08:16:05.357Z,23.15
2023-02-14T08:18:08.254Z,22.70
2023-02-14T08:20:13.659Z,21.42
2023-02-14T08:22:18.150Z,21.10
2023-02-14T08:24:20.974Z,20.75
2023-02-14T08:26:23.787Z,22.15
2023-02-14T08:28:27.467Z,19.67
2023-02-14T08:30:30.727Z,20.88
2023-02-14T08:32:33.784Z,24.33
2023-02-14T08:34:36.676Z,22.42
2023-02-14T08:36:40.888Z,25.40
2023-02-14T08:38:45.106Z,22.27
2023-02-14T08:40:48.281Z,23.98
2023-02-14T08:42:51.162Z,22.15
2023-02-14T08:44:53.901Z,23.05
2023-02-14T08:46:56.914Z,27.08
2023-02-14T08:48:59.972Z,26.38
2023-02-14T08:51:06.135Z,27.85
2023-02-14T08:53:12.021Z,24.90
2023-02-14T08:55:14.889Z,24.80
2023-02-14T08:57:18.219Z,21.13
2023-02-14T08:59:21.083Z,21.88
2023-02-14T09:01:27.669Z,25.25
2023-02-14T09:03:30.488Z,24.07
2023-02-14T09:05:34.543Z,23.30
2023-02-14T09:07:37.716Z,23.13
2023-02-14T09:09:41.952Z,25.65
2023-02-14T09:11:44.742Z,22.75
2023-02-14T09:13:48.567Z,25.60
2023-02-14T09:15:51.493Z,28.25
2023-02-14T09:17:54.342Z,28.52
2023-02-14T09:19:57.174Z,24.38
2023-02-14T09:22:00.329Z,26.50
2023-02-14T09:24:03.198Z,28.65
2023-02-14T09:26:10.163Z,30.30
2023-02-14T09:28:12.941Z,29.08
2023-02-14T09:30:16.813Z,29.02
2023-02-14T09:32:20.135Z,30.65
2023-02-14T09:34:23.198Z,31.90
2023-02-14T09:36:43.923Z,32.78
2023-02-14T09:38:46.747Z,29.33
2023-02-14T09:40:50.390Z,25.27
2023-02-14T09:43:02.115Z,25.40
2023-02-14T09:45:08.029Z,28.60
2023-02-14T09:47:20.234Z,27.48
2023-02-14T09:49:33.173Z,26.48
2023-02-14T09:51:37.431Z,25.60
2023-02-14T09:53:44.992Z,26.98
2023-02-14T09:55:59.259Z,23.58
2023-02-14T09:58:08.748Z,25.20
2023-02-14T10:00:21.083Z,25.70
2023-02-14T10:02:40.449Z,25.95
2023-02-14T10:04:53.112Z,26.75
2023-02-14T10:07:02.597Z,24.85
2023-02-14T10:09:14.717Z,24.33
2023-02-14T10:11:21.583Z,25.30
2023-02-14T10:13:31.203Z,22.58
2023-02-14T10:15:37.818Z,25.02
2023-02-14T10:17:44.690Z,25.52
2023-02-14T10:19:53.208Z,26.52
2023-02-14T10:22:00.923Z,29.17
2023-02-14T10:24:12.807Z,28.17
2023-02-14T10:26:20.670Z,27.10
2023-02-14T10:28:32.192Z,25.05
2023-02-14T10:30:40.095Z,24.45
2023-02-14T10:32:47.434Z,28.98
2023-02-14T10:34:52.503Z,24.88
2023-02-14T10:37:13.060Z,23.85
2023-02-14T10:39:39.714Z,28.15
2023-02-14T10:41:51.074Z,25.25
2023-02-14T10:44:06.026Z,28.55
2023-02-14T10:46:19.883Z,25.08
2023-02-14T10:48:36.412Z,27.17
2023-02-14T10:52:59.274Z,25.23
2023-02-14T10:55:13.874Z,25.45
2023-02-14T10:57:23.747Z,25.35
2023-02-14T10:59:31.873Z,29.02
2023-02-14T11:01:35.743Z,27.73
2023-02-14T11:03:43.942Z,26.23
2023-02-14T11:05:48.748Z,28.27
2023-02-14T11:07:51.829Z,29.95
2023-02-14T11:09:54.621Z,29.08
2023-02-14T11:12:00.461Z,30.73
2023-02-14T11:16:34.973Z,29.95
2023-02-14T11:18:39.939Z,27.02
2023-02-14T11:22:45.399Z,25.42
2023-02-14T11:24:48.375Z,25.88
2023-02-14T11:26:52.959Z,31.80
2023-02-14T11:28:59.940Z,27.35
2023-02-14T11:31:03.692Z,29.30
2023-02-14T11:33:11.488Z,28.50
2023-02-14T11:35:24.174Z,28.48
2023-02-14T11:37:29.341Z,27.17
2023-02-14T11:39:34.790Z,29.58
2023-02-14T11:41:48.680Z,27.80
2023-02-14T11:43:53.101Z,28.52
2023-02-14T11:46:07.596Z,31.23
2023-02-14T11:48:22.349Z,32.00
2023-02-14T11:50:34.146Z,30.58
2023-02-14T11:52:49.000Z,31.52
2023-02-14T11:54:51.834Z,31.95
2023-02-14T11:56:57.777Z,31.63
2023-02-14T11:59:03.977Z,32.13
2023-02-14T12:01:07.730Z,29.65
2023-02-14T12:03:20.355Z,28.98
2023-02-14T12:05:28.900Z,32.30
2023-02-14T12:07:35.262Z,31.48
2023-02-14T12:09:41.325Z,34.20
2023-02-14T12:11:56.002Z,29.38
2023-02-14T12:13:59.568Z,28.85
2023-02-14T12:16:03.785Z,29.63
2023-02-14T12:18:30.400Z,31.98
2023-02-14T12:20:42.927Z,33.60
2023-02-14T12:22:50.890Z,31.17
2023-02-14T12:25:03.178Z,29.20
2023-02-14T12:27:18.262Z,32.28
2023-02-14T12:29:26.223Z,30.75
2023-02-14T12:31:29.098Z,32.80
2023-02-14T12:33:33.267Z,28.52
2023-02-14T12:35:48.289Z,30.48
2023-02-14T12:38:04.816Z,33.15
2023-02-14T12:40:22.484Z,32.70
2023-02-14T12:42:43.093Z,31.73
2023-02-14T12:44:58.263Z,34.00
2023-02-14T12:47:14.439Z,35.97
2023-02-14T12:49:40.234Z,36.97
2023-02-14T12:51:50.353Z,35.47
2023-02-14T12:54:07.542Z,37.47
2023-02-14T12:56:19.318Z,36.85
2023-02-14T12:58:37.259Z,37.45
2023-02-14T13:00:50.037Z,33.35
2023-02-14T13:03:14.569Z,36.70
2023-02-14T13:05:25.863Z,38.15
2023-02-14T13:07:45.168Z,32.47
2023-02-14T13:09:55.197Z,34.58
2023-02-14T13:12:12.416Z,36.63
2023-02-14T13:14:39.715Z,35.30
2023-02-14T13:16:50.197Z,32.83
2023-02-14T13:18:58.578Z,31.45
2023-02-14T13:21:05.852Z,34.45
2023-02-14T13:23:14.505Z,31.63
2023-02-14T13:25:30.730Z,35.17
2023-02-14T13:27:39.967Z,37.88
2023-02-14T13:29:48.071Z,35.35
2023-02-14T13:31:52.761Z,33.95
2023-02-14T13:34:01.551Z,36.33
2023-02-14T13:36:09.266Z,38.08
2023-02-14T13:38:16.304Z,43.22
2023-02-14T13:40:21.998Z,41.42
2023-02-14T13:42:57.177Z,40.40
2023-02-14T13:45:00.006Z,36.95
2023-02-14T13:47:02.840Z,37.20
2023-02-14T13:49:25.225Z,38.25
2023-02-14T13:51:50.894Z,41.33
2023-02-14T13:53:53.704Z,37.22
2023-02-14T13:55:57.145Z,36.05
2023-02-14T13:58:04.571Z,39.72
2023-02-14T14:00:42.620Z,40.60
2023-02-14T14:02:46.694Z,39.95
2023-02-14T14:04:49.448Z,40.67
2023-02-14T14:07:18.929Z,41.42
2023-02-14T14:09:56.703Z,40.47
2023-02-14T14:12:00.665Z,39.55
2023-02-14T14:14:05.616Z,39.23
2023-02-14T14:18:42.759Z,34.33
2023-02-14T14:20:48.270Z,37.20
2023-02-14T14:22:55.112Z,34.72
2023-02-14T14:25:01.592Z,35.70
2023-02-14T14:27:07.412Z,34.05
2023-02-14T14:29:20.182Z,34.15
2023-02-14T14:31:23.170Z,34.58
2023-02-14T14:33:29.069Z,37.47
2023-02-14T14:35:31.827Z,33.83
2023-02-14T14:37:37.567Z,35.95
2023-02-14T14:39:41.784Z,34.58
2023-02-14T14:41:44.899Z,38.45
2023-02-14T14:43:48.425Z,33.83
2023-02-14T14:45:53.279Z,35.03
2023-02-14T14:50:07.945Z,35.50
2023-02-14T14:52:25.553Z,38.50
2023-02-14T14:54:30.046Z,38.40
2023-02-14T14:56:36.945Z,34.63
2023-02-14T14:58:41.769Z,33.63
2023-02-14T15:00:52.601Z,34.70
2023-02-14T15:03:01.718Z,36.70
2023-02-14T15:05:24.108Z,37.67
2023-02-14T15:07:30.120Z,36.95
2023-02-14T15:09:34.447Z,38.67
2023-02-14T15:11:57.531Z,37.05
2023-02-14T15:14:01.494Z,39.08
2023-02-14T15:16:04.586Z,36.55
2023-02-14T15:18:08.142Z,35.35
2023-02-14T15:20:17.594Z,37.40
2023-02-14T15:22:22.512Z,37.75
2023-02-14T15:24:26.754Z,36.65
2023-02-14T15:26:31.435Z,38.05
2023-02-14T15:28:38.513Z,36.83
2023-02-14T15:30:44.137Z,36.08
2023-02-14T15:32:49.334Z,35.85
2023-02-14T15:34:53.616Z,36.13
2023-02-14T15:37:03.500Z,33.58
2023-02-14T15:39:09.451Z,36.75
2023-02-14T15:41:14.197Z,35.72
2023-02-14T15:43:27.605Z,37.33
2023-02-14T15:45:32.286Z,36.83
2023-02-14T15:47:35.170Z,34.03
2023-02-14T15:49:41.112Z,36.55
2023-02-14T15:51:44.304Z,37.70
2023-02-14T15:53:52.221Z,38.50
2023-02-14T15:55:56.253Z,39.70
2023-02-14T15:58:01.549Z,37.70
2023-02-14T16:00:11.612Z,40.58
2023-02-14T16:02:28.414Z,43.03
2023-02-14T16:04:33.418Z,42.67
2023-02-14T16:06:39.124Z,37.67
2023-02-14T16:08:42.157Z,37.88
2023-02-14T16:10:59.999Z,38.55
2023-02-14T16:13:06.473Z,41.20
2023-02-14T16:15:20.120Z,39.78
2023-02-14T16:17:34.477Z,49.30
2023-02-14T16:19:39.486Z,52.20
2023-02-14T16:21:56.391Z,55.45
2023-02-14T16:24:12.497Z,46.60
2023-02-14T16:26:15.809Z,51.33
2023-02-14T16:28:19.075Z,53.42
2023-02-14T16:30:22.382Z,55.80
2023-02-14T16:32:25.435Z,56.90
2023-02-14T16:34:29.876Z,52.97
2023-02-14T16:36:51.838Z,52.83
2023-02-14T16:39:16.443Z,50.80
2023-02-14T16:41:43.962Z,57.38
2023-02-14T16:43:47.817Z,53.83
2023-02-14T16:45:50.657Z,52.08
2023-02-14T16:47:53.509Z,47.53
2023-02-14T16:49:57.688Z,43.60
2023-02-14T16:52:00.496Z,43.42
2023-02-14T16:54:06.275Z,45.08
2023-02-14T16:56:14.685Z,45.38
2023-02-14T16:58:19.443Z,42.40
2023-02-14T17:00:23.416Z,43.42
2023-02-14T17:02:28.087Z,44.65
2023-02-14T17:04:30.957Z,43.58
2023-02-14T17:06:39.559Z,44.28
2023-02-14T17:08:43.197Z,49.45
2023-02-14T17:10:48.431Z,62.83
2023-02-14T17:12:52.376Z,52.10
2023-02-14T17:14:59.568Z,47.80
2023-02-14T17:17:02.645Z,43.60
2023-02-14T17:19:05.528Z,43.20
2023-02-14T17:21:08.405Z,41.42
2023-02-14T17:23:12.548Z,43.90
2023-02-14T17:25:15.399Z,41.20
2023-02-14T17:27:18.216Z,40.10
2023-02-14T17:29:21.063Z,40.92
2023-02-14T17:31:23.890Z,39.80
2023-02-14T17:33:26.963Z,38.50
2023-02-14T17:35:29.952Z,39.63
2023-02-14T17:37:33.198Z,41.58
2023-02-14T17:39:37.383Z,39.63
2023-02-14T17:41:40.562Z,40.25
2023-02-14T17:43:43.976Z,41.92
2023-02-14T17:45:46.728Z,44.75
2023-02-14T17:47:50.116Z,42.17
2023-02-14T17:49:52.878Z,44.72
2023-02-14T17:51:56.375Z,46.80
2023-02-14T17:53:59.165Z,44.00
2023-02-14T17:56:06.816Z,46.95
2023-02-14T17:58:09.614Z,48.28
2023-02-14T18:00:14.206Z,45.05
2023-02-14T18:02:16.987Z,56.65
2023-02-14T18:04:19.790Z,41.80
2023-02-14T18:06:22.940Z,47.97
2023-02-14T18:08:28.647Z,51.55
2023-02-14T18:10:31.486Z,55.83
2023-02-14T18:12:35.803Z,57.28
2023-02-14T18:14:38.635Z,61.15
2023-02-14T18:16:41.565Z,60.72
2023-02-14T18:18:44.595Z,53.13
2023-02-14T18:20:53.913Z,60.58
2023-02-14T18:22:56.668Z,56.53
2023-02-14T18:24:59.623Z,57.17
2023-02-14T18:27:02.832Z,60.28
2023-02-14T18:29:07.937Z,65.53
2023-02-14T18:31:13.171Z,63.58
2023-02-14T18:33:17.715Z,65.50
2023-02-14T18:35:21.125Z,68.55
2023-02-14T18:37:23.999Z,67.00
2023-02-14T18:39:26.845Z,69.10
2023-02-14T18:41:30.521Z,68.10
2023-02-14T18:43:33.577Z,70.75
2023-02-14T18:45:39.196Z,65.38
2023-02-14T18:47:41.973Z,64.72
2023-02-14T18:49:44.770Z,64.88
2023-02-14T18:51:48.952Z,64.78
2023-02-14T18:53:52.769Z,66.22
2023-02-14T18:55:55.663Z,66.00
2023-02-14T18:57:58.506Z,67.72
2023-02-14T19:00:06.478Z,69.55
2023-02-14T19:02:11.249Z,66.45
2023-02-14T19:04:17.004Z,70.03
2023-02-14T19:06:20.644Z,67.78
2023-02-14T19:08:23.445Z,65.10
2023-02-14T19:10:26.217Z,67.47
2023-02-14T19:12:31.973Z,67.22
2023-02-14T19:14:34.822Z,67.03
2023-02-14T19:16:39.325Z,63.17
2023-02-14T19:18:43.793Z,65.88
2023-02-14T19:20:46.615Z,65.93
2023-02-14T19:22:49.633Z,70.28
2023-02-14T19:24:53.367Z,66.70
2023-02-14T19:26:57.586Z,69.03
2023-02-14T19:29:02.303Z,67.60
2023-02-14T19:31:05.168Z,67.00
2023-02-14T19:33:08.008Z,68.45
2023-02-14T19:35:12.112Z,68.00
2023-02-14T19:37:14.897Z,68.10
2023-02-14T19:39:18.955Z,65.93
2023-02-14T19:41:23.999Z,67.78
2023-02-14T19:43:26.799Z,63.28
2023-02-14T19:45:32.445Z,66.60
2023-02-14T19:47:46.742Z,65.65
2023-02-14T19:49:50.302Z,64.22
2023-02-14T19:51:54.694Z,66.03
2023-02-14T19:53:59.082Z,65.78
2023-02-14T19:56:02.075Z,66.20
2023-02-14T19:58:05.400Z,65.10
2023-02-14T20:00:10.970Z,68.00
2023-02-14T20:02:19.826Z,69.20
2023-02-14T20:04:24.387Z,70.30
2023-02-14T20:06:29.165Z,66.70
2023-02-14T20:08:33.311Z,59.38
2023-02-14T20:10:36.128Z,60.53
2023-02-14T20:12:39.279Z,64.30
2023-02-14T20:14:50.896Z,64.40
2023-02-14T20:16:56.454Z,59.25
2023-02-14T20:19:01.465Z,64.88
2023-02-14T20:23:07.015Z,63.95
2023-02-14T20:25:11.762Z,64.38
2023-02-14T20:27:14.658Z,63.28
2023-02-14T20:29:18.558Z,66.88
2023-02-14T20:31:21.787Z,62.35
2023-02-14T20:33:24.623Z,65.50
2023-02-14T20:35:27.466Z,61.17
2023-02-14T20:37:30.472Z,62.65
2023-02-14T20:39:34.953Z,61.05
2023-02-14T20:41:39.281Z,58.00
2023-02-14T20:43:42.085Z,56.50
2023-02-14T20:45:45.780Z,48.85
2023-02-14T20:47:49.022Z,48.80
2023-02-14T20:49:51.796Z,58.17
2023-02-14T20:51:55.937Z,54.25
2023-02-14T20:53:58.703Z,57.95
2023-02-14T20:56:01.506Z,57.42
2023-02-14T20:58:05.646Z,59.67
2023-02-14T21:00:10.521Z,57.80
2023-02-14T21:02:13.379Z,57.95
2023-02-14T21:04:16.641Z,57.83
2023-02-14T21:06:22.154Z,55.78
2023-02-14T21:08:24.928Z,60.28
2023-02-14T21:10:28.251Z,63.28
2023-02-14T21:12:31.061Z,60.83
2023-02-14T21:14:35.199Z,59.50
2023-02-14T21:16:38.014Z,58.70
2023-02-14T21:18:40.752Z,60.55
2023-02-14T21:20:43.690Z,64.50
2023-02-14T21:22:46.445Z,58.65
2023-02-14T21:24:49.312Z,50.58
2023-02-14T21:26:52.118Z,56.53
2023-02-14T21:28:54.912Z,51.13
2023-02-14T21:31:05.164Z,54.28
2023-02-14T21:33:08.222Z,55.80
2023-02-14T21:35:11.168Z,48.13
2023-02-14T21:37:13.921Z,52.60
2023-02-14T21:39:16.858Z,49.10
2023-02-14T21:41:22.555Z,50.83
2023-02-14T21:43:25.334Z,45.55
2023-02-14T21:45:45.049Z,47.45
2023-02-14T21:48:09.215Z,51.47
2023-02-14T21:50:29.731Z,51.17
2023-02-14T21:52:32.526Z,54.03
2023-02-14T21:54:35.294Z,49.03
2023-02-14T21:56:39.845Z,50.80
2023-02-14T21:58:42.630Z,48.92
2023-02-14T22:00:46.012Z,42.97
2023-02-14T22:02:50.212Z,42.55
2023-02-14T22:04:52.977Z,41.13
2023-02-14T22:06:57.054Z,43.47
2023-02-14T22:09:01.070Z,45.17
2023-02-14T22:11:06.740Z,40.78
2023-02-14T22:13:09.540Z,45.35
2023-02-14T22:15:12.344Z,48.80
2023-02-14T22:17:15.304Z,41.45
2023-02-14T22:19:19.460Z,47.05
2023-02-14T22:21:24.173Z,37.30
2023-02-14T22:23:28.985Z,41.13
2023-02-14T22:27:39.011Z,41.45
2023-02-14T22:29:41.816Z,45.20
2023-02-14T22:31:45.095Z,44.83
2023-02-14T22:33:49.239Z,40.00
2023-02-14T22:35:56.785Z,41.30
2023-02-14T22:37:59.669Z,42.55
2023-02-14T22:40:02.486Z,37.40
2023-02-14T22:42:06.836Z,38.08
2023-02-14T22:44:09.756Z,37.67
2023-02-14T22:46:14.879Z,45.30
2023-02-14T22:48:18.646Z,46.55
2023-02-14T22:50:21.358Z,41.10
2023-02-14T22:52:25.525Z,43.00
2023-02-14T22:54:28.248Z,49.80
2023-02-14T22:56:34.238Z,48.83
2023-02-14T22:58:37.046Z,44.13
2023-02-14T23:00:39.911Z,46.22
2023-02-14T23:02:42.747Z,45.80
2023-02-14T23:04:45.582Z,42.55
2023-02-14T23:06:49.048Z,44.35
2023-02-14T23:08:53.703Z,45.03
2023-02-14T23:10:56.463Z,45.80
2023-02-14T23:13:16.807Z,49.35
2023-02-14T23:15:37.104Z,44.33
2023-02-14T23:17:57.406Z,55.05
2023-02-14T23:20:17.819Z,39.95
2023-02-14T23:22:22.447Z,42.88
2023-02-14T23:24:26.656Z,42.20
2023-02-14T23:26:29.507Z,45.38
2023-02-14T23:28:32.321Z,44.28
2023-02-14T23:30:35.128Z,40.20
2023-02-14T23:32:38.159Z,44.00
2023-02-14T23:34:43.342Z,43.17
2023-02-14T23:36:46.352Z,42.67
2023-02-14T23:38:49.119Z,43.25
2023-02-14T23:41:10.669Z,38.53
2023-02-14T23:43:13.385Z,42.42
2023-02-14T23:45:33.814Z,40.55
2023-02-14T23:47:36.595Z,41.55
2023-02-14T23:49:40.995Z,42.05
2023-02-14T23:51:44.884Z,40.92
2023-02-14T23:53:47.771Z,39.10
2023-02-14T23:55:50.528Z,39.20
2023-02-14T23:57:54.661Z,42.60
2023-02-14T23:59:57.456Z,41.72
